createdAt,value
2017-09-03T12:42:22.268Z,24.52
2017-09-03T12:43:23.505Z,24.50
2017-09-03T12:44:22.907Z,24.11
2017-09-03T12:45:22.177Z,24.13
2017-09-03T12:46:22.328Z,24.20
2017-09-03T12:47:22.912Z,24.56
2017-09-03T12:48:22.916Z,24.84
2017-09-03T12:49:22.352Z,25.11
2017-09-03T12:53:39.424Z,25.19
2017-09-03T12:54:44.426Z,25.11
2017-09-03T12:55:49.330Z,25.04
2017-09-03T12:56:55.937Z,25.12
2017-09-03T12:58:00.513Z,25.19
2017-09-03T12:59:06.436Z,25.20
2017-09-03T13:00:11.516Z,25.29
2017-09-03T13:01:18.439Z,25.27
2017-09-03T13:02:23.159Z,25.20
2017-09-03T13:03:28.972Z,24.48
2017-09-03T13:04:33.675Z,24.44
2017-09-03T13:05:39.188Z,24.20
2017-09-03T13:06:44.601Z,24.04
2017-09-03T13:07:50.971Z,24.06
2017-09-03T13:08:56.460Z,24.27
2017-09-03T13:10:01.360Z,24.37
2017-09-03T13:11:07.457Z,24.40
2017-09-03T13:12:12.960Z,24.07
2017-09-03T13:13:17.886Z,24.12
2017-09-03T13:14:24.119Z,24.11
2017-09-03T13:15:29.076Z,24.03
2017-09-03T13:16:34.492Z,23.92
2017-09-03T13:17:40.096Z,23.81
2017-09-03T13:18:47.471Z,23.81
2017-09-03T13:19:51.978Z,23.82
2017-09-03T13:20:56.802Z,23.89
2017-09-03T13:22:02.217Z,23.97
2017-09-03T13:23:08.482Z,23.86
2017-09-03T13:24:13.293Z,23.72
2017-09-03T13:25:18.816Z,23.70
2017-09-03T13:26:24.312Z,23.71
2017-09-03T13:27:29.965Z,23.71
2017-09-03T13:28:35.379Z,23.70
2017-09-03T13:29:42.029Z,23.43
2017-09-03T13:30:46.477Z,23.01
2017-09-03T13:31:51.998Z,22.70
2017-09-03T13:32:57.604Z,22.50
2017-09-03T13:34:03.052Z,22.51
2017-09-03T13:35:08.632Z,22.54
2017-09-03T13:36:14.158Z,22.77
2017-09-03T13:37:19.685Z,23.09
2017-09-03T13:38:25.726Z,23.30
2017-09-03T13:39:31.685Z,23.40
2017-09-03T13:40:36.249Z,23.65
2017-09-03T13:41:42.512Z,23.90
2017-09-03T13:42:47.306Z,24.06
2017-09-03T13:43:53.532Z,24.14
2017-09-03T13:44:59.045Z,24.34
2017-09-03T13:46:03.930Z,24.48
2017-09-03T13:47:09.462Z,24.45
2017-09-03T13:48:15.078Z,24.62
2017-09-03T13:49:20.571Z,24.54
2017-09-03T13:50:26.158Z,24.63
2017-09-03T13:51:31.625Z,24.64
2017-09-03T13:52:38.534Z,24.62
2017-09-03T13:53:43.541Z,24.62
2017-09-03T13:54:48.254Z,24.54
2017-09-03T13:55:54.563Z,24.25
2017-09-03T13:56:59.415Z,24.26
2017-09-03T13:58:05.610Z,24.34
2017-09-03T13:59:10.582Z,24.30
2017-09-03T14:00:16.064Z,24.26
2017-09-03T14:01:21.456Z,24.00
2017-09-03T14:02:27.001Z,23.48
2017-09-03T14:03:33.189Z,23.19
2017-09-03T14:04:38.560Z,22.71
2017-09-03T14:05:44.179Z,22.25
2017-09-03T14:06:49.170Z,22.12
2017-09-03T14:07:54.591Z,21.93
2017-09-03T14:09:00.221Z,21.87
2017-09-03T14:10:06.655Z,21.93
2017-09-03T14:11:12.070Z,22.10
2017-09-03T14:12:16.923Z,22.15
2017-09-03T14:13:22.313Z,22.38
2017-09-03T14:14:27.971Z,22.61
2017-09-03T14:15:34.172Z,22.69
2017-09-03T14:16:38.922Z,22.48
2017-09-03T14:17:44.574Z,22.32
2017-09-03T14:18:50.025Z,22.12
2017-09-03T14:19:55.590Z,22.11
2017-09-03T14:21:02.083Z,22.34
2017-09-03T14:22:07.093Z,22.37
2017-09-03T14:23:12.140Z,22.51
2017-09-03T14:24:17.663Z,22.60
2017-09-03T14:25:23.212Z,22.35
2017-09-03T14:26:28.802Z,22.20
2017-09-03T14:27:34.299Z,22.11
2017-09-03T14:28:41.097Z,22.25
2017-09-03T14:29:46.344Z,22.42
2017-09-03T14:30:51.109Z,22.55
2017-09-03T14:31:57.105Z,22.48
2017-09-03T14:33:02.033Z,22.23
2017-09-03T14:34:07.535Z,21.92
2017-09-03T14:35:13.045Z,21.76
2017-09-03T14:36:18.609Z,21.77
2017-09-03T14:37:24.105Z,21.64
2017-09-03T14:38:29.709Z,21.56
2017-09-03T14:39:35.225Z,21.85
2017-09-03T14:40:40.817Z,22.06
2017-09-03T14:41:46.195Z,22.11
2017-09-03T14:42:53.633Z,22.36
2017-09-03T14:43:58.128Z,22.68
2017-09-03T14:45:03.626Z,22.57
2017-09-03T14:46:08.456Z,22.25
2017-09-03T14:47:14.748Z,22.04
2017-09-03T14:48:19.498Z,22.21
2017-09-03T14:49:25.022Z,22.44
2017-09-03T14:50:31.135Z,22.62
2017-09-03T14:51:36.243Z,22.65
2017-09-03T14:52:42.145Z,22.53
2017-09-03T14:53:47.226Z,22.23
2017-09-03T14:54:52.614Z,21.87
2017-09-03T14:55:58.812Z,21.73
2017-09-03T14:57:03.850Z,21.56
2017-09-03T14:58:09.291Z,21.44
2017-09-03T14:59:14.835Z,21.42
2017-09-03T15:00:20.368Z,21.42
2017-09-03T15:01:25.953Z,21.38
2017-09-03T15:02:31.465Z,21.43
2017-09-03T15:03:37.013Z,21.34
2017-09-03T15:04:42.457Z,21.31
2017-09-03T15:05:48.905Z,21.43
2017-09-03T15:06:54.169Z,21.51
2017-09-03T15:07:59.145Z,21.59
2017-09-03T15:09:05.199Z,21.65
2017-09-03T15:10:10.712Z,21.72
2017-09-03T15:11:15.698Z,21.67
2017-09-03T15:12:21.353Z,21.71
2017-09-03T15:13:26.737Z,21.94
2017-09-03T15:14:32.435Z,22.21
2017-09-03T15:15:37.958Z,22.37
2017-09-03T15:16:44.369Z,22.37
2017-09-03T15:17:50.692Z,22.38
2017-09-03T15:18:55.350Z,22.44
2017-09-03T15:19:59.978Z,22.44
2017-09-03T15:21:06.193Z,22.34
2017-09-03T15:22:11.096Z,22.38
2017-09-03T15:23:16.610Z,22.56
2017-09-03T15:24:22.852Z,22.70
2017-09-03T15:25:27.630Z,22.70
2017-09-03T15:26:33.216Z,22.68
2017-09-03T15:27:38.800Z,22.54
2017-09-03T15:28:44.297Z,22.47
2017-09-03T15:29:50.032Z,22.45
2017-09-03T15:30:55.349Z,22.44
2017-09-03T15:32:01.049Z,22.42
2017-09-03T15:33:06.437Z,22.42
2017-09-03T15:34:12.732Z,22.37
2017-09-03T15:35:17.527Z,22.46
2017-09-03T15:36:23.048Z,22.48
2017-09-03T15:37:28.673Z,22.43
2017-09-03T15:38:34.153Z,22.43
2017-09-03T15:39:39.644Z,22.53
2017-09-03T15:40:45.202Z,22.70
2017-09-03T15:41:50.715Z,22.93
2017-09-03T15:42:57.230Z,23.12
2017-09-03T15:44:01.870Z,23.15
2017-09-03T15:45:07.736Z,23.05
2017-09-03T15:46:12.878Z,22.90
2017-09-03T15:47:18.455Z,22.80
2017-09-03T15:48:24.747Z,22.69
2017-09-03T15:49:30.248Z,22.55
2017-09-03T15:50:34.995Z,22.60
2017-09-03T15:51:40.611Z,22.50
2017-09-03T15:52:46.753Z,22.39
2017-09-03T15:53:51.665Z,22.29
2017-09-03T15:54:57.096Z,22.28
2017-09-03T15:56:03.407Z,22.23
2017-09-03T15:57:08.239Z,22.21
2017-09-03T15:58:13.734Z,22.27
2017-09-03T15:59:19.315Z,22.20
2017-09-03T16:00:24.982Z,22.01
2017-09-03T16:01:30.353Z,22.03
2017-09-03T16:02:35.892Z,22.04
2017-09-03T16:03:41.471Z,22.01
2017-09-03T16:04:47.008Z,21.90
2017-09-03T16:05:52.519Z,21.84
2017-09-03T16:06:58.108Z,21.87
2017-09-03T16:08:04.381Z,21.88
2017-09-03T16:09:09.081Z,21.82
2017-09-03T16:10:14.700Z,21.94
2017-09-03T16:11:20.909Z,22.04
2017-09-03T16:12:27.309Z,21.97
2017-09-03T16:13:31.249Z,21.85
2017-09-03T16:14:36.796Z,21.77
2017-09-03T16:15:42.435Z,21.72
2017-09-03T16:16:49.794Z,21.79
2017-09-03T16:17:53.458Z,21.77
2017-09-03T16:18:59.114Z,21.78
2017-09-03T16:20:05.304Z,21.72
2017-09-03T16:21:10.041Z,21.67
2017-09-03T16:22:15.523Z,21.62
2017-09-03T16:23:21.875Z,21.53
2017-09-03T16:24:27.601Z,21.42
2017-09-03T16:25:32.328Z,21.31
2017-09-03T16:26:37.719Z,21.27
2017-09-03T16:27:43.827Z,21.15
2017-09-03T16:28:49.194Z,21.06
2017-09-03T16:29:54.240Z,21.05
2017-09-03T16:31:00.318Z,21.20
2017-09-03T16:32:05.826Z,21.37
2017-09-03T16:33:10.978Z,21.54
2017-09-03T16:34:17.439Z,21.46
2017-09-03T16:35:22.535Z,21.25
2017-09-03T16:36:27.462Z,21.03
2017-09-03T16:37:34.330Z,20.84
2017-09-03T16:38:39.362Z,20.64
2017-09-03T16:39:45.333Z,20.62
2017-09-03T16:40:49.829Z,20.72
2017-09-03T16:41:56.344Z,20.69
2017-09-03T16:43:00.801Z,20.62
2017-09-03T16:44:07.345Z,20.45
2017-09-03T16:45:12.452Z,20.28
2017-09-03T16:46:17.502Z,20.12
2017-09-03T16:47:22.909Z,20.01
2017-09-03T16:48:29.011Z,19.93
2017-09-03T16:49:33.978Z,19.81
2017-09-03T16:50:39.503Z,19.70
2017-09-03T16:51:45.439Z,19.60
2017-09-03T16:52:50.599Z,19.52
2017-09-03T16:53:56.216Z,19.67
2017-09-03T16:55:01.709Z,19.78
2017-09-03T16:56:07.134Z,19.76
2017-09-03T16:57:12.688Z,19.68
2017-09-03T16:58:18.240Z,19.56
2017-09-03T16:59:23.803Z,19.45
2017-09-03T17:00:30.018Z,19.37
2017-09-03T17:01:35.377Z,19.29
2017-09-03T17:02:40.316Z,19.28
2017-09-03T17:03:45.881Z,19.20
2017-09-03T17:04:52.379Z,19.15
2017-09-03T17:05:57.511Z,19.15
2017-09-03T17:07:02.577Z,19.20
2017-09-03T17:08:08.384Z,19.29
2017-09-03T17:09:14.512Z,19.37
2017-09-03T17:10:19.136Z,19.45
2017-09-03T17:11:24.654Z,19.52
2017-09-03T17:12:30.208Z,19.50
2017-09-03T17:13:35.630Z,19.46
2017-09-03T17:14:41.278Z,19.51
2017-09-03T17:15:46.751Z,19.51
2017-09-03T17:16:52.282Z,19.50
2017-09-03T17:17:57.940Z,19.44
2017-09-03T17:19:03.399Z,19.34
2017-09-03T17:20:08.971Z,19.25
2017-09-03T17:21:14.416Z,19.12
2017-09-03T17:22:19.983Z,18.98
2017-09-03T17:23:25.632Z,18.89
2017-09-03T17:24:31.923Z,18.89
2017-09-03T17:25:36.653Z,18.82
2017-09-03T17:26:42.118Z,18.71
2017-09-03T17:27:47.646Z,18.54
2017-09-03T17:28:53.200Z,18.38
2017-09-03T17:29:58.763Z,18.29
2017-09-03T17:31:04.229Z,18.23
2017-09-03T17:32:09.813Z,18.13
2017-09-03T17:33:15.339Z,18.02
2017-09-03T17:34:20.896Z,17.92
2017-09-03T17:35:26.910Z,17.80
2017-09-03T17:36:32.429Z,17.69
2017-09-03T17:37:37.520Z,17.60
2017-09-03T17:38:43.037Z,17.46
2017-09-03T17:39:49.447Z,17.37
2017-09-03T17:40:54.961Z,17.21
2017-09-03T17:41:59.686Z,17.07
2017-09-03T17:43:05.216Z,16.93
2017-09-03T17:44:10.808Z,16.76
2017-09-03T17:45:16.254Z,16.63
2017-09-03T17:46:22.948Z,16.54
2017-09-03T17:47:27.313Z,16.44
2017-09-03T17:48:32.939Z,16.37
2017-09-03T17:49:38.434Z,16.26
2017-09-03T17:50:43.995Z,16.20
2017-09-03T17:51:50.455Z,16.06
2017-09-03T17:52:54.979Z,15.89
2017-09-03T17:54:01.230Z,15.77
2017-09-03T17:55:06.961Z,15.64
2017-09-03T17:56:12.460Z,15.56
2017-09-03T17:57:17.962Z,15.46
2017-09-03T17:58:22.696Z,15.34
2017-09-03T17:59:29.971Z,15.23
2017-09-03T18:00:33.727Z,15.18
2017-09-03T18:01:40.661Z,15.10
2017-09-03T18:02:44.838Z,15.07
2017-09-03T18:03:50.378Z,14.97
2017-09-03T18:04:55.951Z,14.89
2017-09-03T18:06:01.400Z,14.81
2017-09-03T18:07:07.632Z,14.71
2017-09-03T18:08:12.591Z,14.60
2017-09-03T18:09:18.506Z,14.53
2017-09-03T18:10:23.591Z,14.46
2017-09-03T18:11:29.139Z,14.38
2017-09-03T18:12:34.705Z,14.31
2017-09-03T18:13:41.209Z,14.22
2017-09-03T18:14:46.560Z,14.14
2017-09-03T18:15:52.088Z,14.09
2017-09-03T18:16:57.587Z,14.02
2017-09-03T18:18:02.255Z,13.96
2017-09-03T18:19:07.925Z,13.88
2017-09-03T18:20:13.334Z,13.84
2017-09-03T18:21:18.886Z,13.80
2017-09-03T18:22:26.007Z,13.76
2017-09-03T18:23:30.689Z,13.72
2017-09-03T18:24:36.128Z,13.64
2017-09-03T18:25:41.514Z,13.60
2017-09-03T18:26:46.594Z,13.53
2017-09-03T18:27:52.089Z,13.48
2017-09-03T18:28:58.245Z,13.43
2017-09-03T18:30:03.725Z,13.36
2017-09-03T18:31:09.518Z,13.31
2017-09-03T18:32:14.269Z,13.25
2017-09-03T18:33:20.621Z,13.18
2017-09-03T18:34:26.050Z,13.14
2017-09-03T18:35:30.833Z,13.10
2017-09-03T18:36:36.510Z,13.06
2017-09-03T18:37:42.714Z,13.02
2017-09-03T18:38:47.456Z,13.00
2017-09-03T18:39:52.961Z,12.97
2017-09-03T18:40:58.553Z,12.89
2017-09-03T18:42:04.582Z,12.85
2017-09-03T18:43:09.633Z,12.80
2017-09-03T18:44:15.247Z,12.73
2017-09-03T18:45:22.138Z,12.69
2017-09-03T18:46:27.046Z,12.63
2017-09-03T18:47:31.921Z,12.59
2017-09-03T18:48:37.365Z,12.56
2017-09-03T18:49:42.808Z,12.50
2017-09-03T18:50:48.363Z,12.44
2017-09-03T18:51:53.859Z,12.40
2017-09-03T18:52:59.475Z,12.35
2017-09-03T18:54:05.829Z,12.28
2017-09-03T18:55:11.174Z,12.25
2017-09-03T18:56:16.213Z,12.22
2017-09-03T18:57:22.076Z,12.17
2017-09-03T18:58:27.818Z,12.10
2017-09-03T18:59:33.397Z,12.06
2017-09-03T19:00:38.566Z,12.01
2017-09-03T19:01:43.749Z,12.00
2017-09-03T19:02:50.140Z,11.97
2017-09-03T19:03:54.760Z,11.93
2017-09-03T19:05:00.303Z,11.89
2017-09-03T19:06:07.571Z,11.85
2017-09-03T19:07:11.487Z,11.80
2017-09-03T19:08:17.042Z,11.77
2017-09-03T19:09:23.167Z,11.72
2017-09-03T19:10:28.036Z,11.69
2017-09-03T19:11:33.585Z,11.64
2017-09-03T19:12:40.653Z,11.63
2017-09-03T19:13:45.607Z,11.63
2017-09-03T19:14:50.263Z,11.60
2017-09-03T19:15:55.742Z,11.59
2017-09-03T19:17:02.603Z,11.57
2017-09-03T19:18:08.180Z,11.56
2017-09-03T19:19:13.093Z,11.55
2017-09-03T19:20:18.233Z,11.51
2017-09-03T19:21:24.233Z,11.47
2017-09-03T19:22:30.638Z,11.43
2017-09-03T19:23:35.603Z,11.43
2017-09-03T19:24:40.223Z,11.38
2017-09-03T19:25:46.185Z,11.36
2017-09-03T19:26:51.031Z,11.32
2017-09-03T19:27:57.126Z,11.31
2017-09-03T19:29:03.104Z,11.26
2017-09-03T19:30:08.619Z,11.25
2017-09-03T19:31:13.750Z,11.21
2017-09-03T19:32:19.176Z,11.15
2017-09-03T19:33:24.284Z,11.10
2017-09-03T19:34:32.114Z,11.02
2017-09-03T19:35:35.290Z,10.98
2017-09-03T19:36:41.663Z,10.97
2017-09-03T19:37:46.461Z,10.92
2017-09-03T19:38:52.619Z,10.89
2017-09-03T19:39:57.529Z,10.85
2017-09-03T19:41:03.819Z,10.81
2017-09-03T19:42:09.128Z,10.79
2017-09-03T19:43:14.102Z,10.77
2017-09-03T19:44:20.250Z,10.75
2017-09-03T19:45:25.079Z,10.72
2017-09-03T19:46:30.684Z,10.71
2017-09-03T19:47:36.229Z,10.69
2017-09-03T19:48:41.875Z,10.72
2017-09-03T19:49:48.638Z,10.71
2017-09-03T19:50:52.836Z,10.68
2017-09-03T19:51:59.837Z,10.64
2017-09-03T19:53:03.940Z,10.63
2017-09-03T19:54:09.449Z,10.64
2017-09-03T19:55:15.799Z,10.63
2017-09-03T19:56:20.694Z,10.63
2017-09-03T19:57:26.101Z,10.61
2017-09-03T19:58:32.798Z,10.61
2017-09-03T19:59:38.150Z,10.64
2017-09-03T20:00:42.627Z,10.64
2017-09-03T20:01:48.207Z,10.64
2017-09-03T20:02:53.684Z,10.65
2017-09-03T20:03:59.668Z,10.65
2017-09-03T20:05:04.849Z,10.65
2017-09-03T20:06:10.440Z,10.67
2017-09-03T20:07:17.013Z,10.68
2017-09-03T20:08:21.403Z,10.81
2017-09-03T20:09:27.769Z,10.86
2017-09-03T20:10:33.668Z,10.84
2017-09-03T20:11:37.971Z,10.80
2017-09-03T20:12:44.369Z,10.82
2017-09-03T20:13:49.517Z,10.86
2017-09-03T20:14:54.673Z,10.85
2017-09-03T20:16:00.126Z,10.80
2017-09-03T20:17:05.717Z,10.73
2017-09-03T20:18:11.312Z,10.68
2017-09-03T20:19:18.302Z,10.60
2017-09-03T20:20:23.689Z,10.52
2017-09-03T20:21:28.684Z,10.43
2017-09-03T20:22:33.365Z,10.32
2017-09-03T20:23:39.126Z,10.32
2017-09-03T20:24:45.187Z,10.31
2017-09-03T20:25:49.861Z,10.31
2017-09-03T20:26:56.190Z,10.27
2017-09-03T20:28:02.191Z,10.17
2017-09-03T20:29:09.202Z,10.10
2017-09-03T20:30:12.789Z,10.11
2017-09-03T20:31:18.208Z,10.10
2017-09-03T20:32:23.175Z,10.10
2017-09-03T20:33:29.451Z,10.13
2017-09-03T20:34:34.304Z,10.14
2017-09-03T20:35:40.455Z,10.13
2017-09-03T20:36:45.873Z,10.10
2017-09-03T20:37:51.320Z,10.06
2017-09-03T20:38:56.413Z,10.02
2017-09-03T20:40:02.836Z,10.01
2017-09-03T20:41:08.233Z,9.98
2017-09-03T20:42:13.025Z,9.94
2017-09-03T20:43:19.465Z,9.89
2017-09-03T20:44:24.033Z,9.80
2017-09-03T20:45:30.227Z,9.72
2017-09-03T20:46:35.807Z,9.71
2017-09-03T20:47:41.198Z,9.68
2017-09-03T20:48:46.180Z,9.65
2017-09-03T20:49:52.303Z,9.64
2017-09-03T20:50:57.725Z,9.68
2017-09-03T20:52:03.419Z,9.67
2017-09-03T20:53:08.374Z,9.64
2017-09-03T20:54:14.442Z,9.60
2017-09-03T20:55:20.413Z,9.57
2017-09-03T20:56:25.746Z,9.52
2017-09-03T20:57:30.554Z,9.47
2017-09-03T20:58:36.736Z,9.47
2017-09-03T20:59:42.256Z,9.44
2017-09-03T21:00:47.786Z,9.39
2017-09-03T21:01:52.582Z,9.35
2017-09-03T21:02:58.151Z,9.35
2017-09-03T21:04:04.271Z,9.34
2017-09-03T21:05:09.336Z,9.27
2017-09-03T21:06:14.848Z,9.21
2017-09-03T21:07:20.294Z,9.15
2017-09-03T21:08:25.888Z,9.22
2017-09-03T21:09:31.461Z,9.30
2017-09-03T21:10:37.035Z,9.30
2017-09-03T21:11:43.386Z,9.30
2017-09-03T21:12:47.968Z,9.35
2017-09-03T21:13:55.358Z,9.34
2017-09-03T21:14:59.127Z,9.35
2017-09-03T21:16:04.643Z,9.32
2017-09-03T21:17:10.164Z,9.32
2017-09-03T21:18:15.696Z,9.28
2017-09-03T21:19:21.766Z,9.18
2017-09-03T21:20:27.853Z,9.11
2017-09-03T21:21:32.336Z,9.11
2017-09-03T21:22:37.979Z,9.18
2017-09-03T21:23:43.299Z,9.15
2017-09-03T21:24:48.870Z,9.13
2017-09-03T21:25:55.797Z,9.13
2017-09-03T21:26:59.888Z,9.11
2017-09-03T21:28:05.528Z,9.10
2017-09-03T21:29:10.979Z,9.09
2017-09-03T21:30:17.382Z,9.10
2017-09-03T21:31:22.860Z,9.07
2017-09-03T21:32:27.646Z,9.06
2017-09-03T21:33:33.173Z,9.02
2017-09-03T21:34:38.734Z,8.93
2017-09-03T21:35:44.790Z,8.84
2017-09-03T21:36:49.753Z,8.77
2017-09-03T21:37:55.321Z,8.79
2017-09-03T21:39:00.849Z,8.76
2017-09-03T21:40:06.394Z,8.73
2017-09-03T21:41:12.372Z,8.72
2017-09-03T21:42:17.408Z,8.76
2017-09-03T21:43:22.994Z,8.79
2017-09-03T21:44:28.451Z,8.82
2017-09-03T21:45:34.181Z,8.86
2017-09-03T21:46:40.539Z,8.81
2017-09-03T21:47:47.808Z,8.77
2017-09-03T21:48:50.751Z,8.71
2017-09-03T21:49:56.213Z,8.64
2017-09-03T21:51:01.738Z,8.65
2017-09-03T21:52:08.816Z,8.63
2017-09-03T21:53:13.479Z,8.64
2017-09-03T21:54:19.021Z,8.71
2017-09-03T21:55:23.946Z,8.72
2017-09-03T21:56:29.407Z,8.68
2017-09-03T21:57:35.322Z,8.63
2017-09-03T21:58:41.415Z,8.56
2017-09-03T21:59:46.041Z,8.50
2017-09-03T22:00:51.588Z,8.50
2017-09-03T22:01:57.167Z,8.43
2017-09-03T22:03:02.664Z,8.39
2017-09-03T22:04:08.169Z,8.44
2017-09-03T22:05:13.767Z,8.47
2017-09-03T22:06:19.200Z,8.47
2017-09-03T22:07:25.155Z,8.55
2017-09-03T22:08:30.325Z,8.57
2017-09-03T22:09:36.444Z,8.53
2017-09-03T22:10:41.398Z,8.53
2017-09-03T22:11:46.956Z,8.48
2017-09-03T22:12:52.429Z,8.52
2017-09-03T22:13:58.001Z,8.47
2017-09-03T22:15:03.563Z,8.43
2017-09-03T22:16:09.928Z,8.40
2017-09-03T22:17:14.649Z,8.44
2017-09-03T22:18:20.148Z,8.44
2017-09-03T22:19:25.701Z,8.38
2017-09-03T22:20:31.190Z,8.31
2017-09-03T22:21:36.715Z,8.34
2017-09-03T22:22:43.041Z,8.34
2017-09-03T22:23:47.782Z,8.35
2017-09-03T22:24:53.299Z,8.35
2017-09-03T22:25:59.624Z,8.36
2017-09-03T22:27:04.424Z,8.32
2017-09-03T22:28:10.396Z,8.31
2017-09-03T22:29:16.009Z,8.34
2017-09-03T22:30:20.960Z,8.36
2017-09-03T22:31:26.662Z,8.36
2017-09-03T22:32:32.928Z,8.39
2017-09-03T22:33:38.630Z,8.43
2017-09-03T22:34:43.167Z,8.39
2017-09-03T22:35:48.767Z,8.35
2017-09-03T22:36:54.251Z,8.27
2017-09-03T22:38:00.381Z,8.31
2017-09-03T22:39:06.007Z,8.38
2017-09-03T22:40:10.964Z,8.40
2017-09-03T22:41:16.889Z,8.35
2017-09-03T22:42:22.684Z,8.31
2017-09-03T22:43:27.629Z,8.22
2017-09-03T22:44:33.041Z,8.21
2017-09-03T22:45:40.419Z,8.18
2017-09-03T22:46:44.055Z,8.10
2017-09-03T22:47:50.897Z,8.09
2017-09-03T22:48:55.051Z,8.10
2017-09-03T22:50:00.662Z,8.13
2017-09-03T22:51:06.199Z,8.22
2017-09-03T22:52:11.714Z,8.30
2017-09-03T22:53:18.958Z,8.36
2017-09-03T22:54:22.770Z,8.34
2017-09-03T22:55:28.924Z,8.18
2017-09-03T22:56:34.561Z,8.11
2017-09-03T22:57:39.452Z,8.03
2017-09-03T22:58:45.621Z,8.03
2017-09-03T22:59:50.554Z,7.98
2017-09-03T23:00:55.982Z,7.92
2017-09-03T23:02:01.475Z,7.86
2017-09-03T23:03:07.183Z,7.82
2017-09-03T23:04:12.624Z,7.92
2017-09-03T23:05:18.920Z,7.94
2017-09-03T23:06:23.681Z,7.96
2017-09-03T23:07:29.926Z,7.96
2017-09-03T23:08:34.776Z,8.01
2017-09-03T23:09:41.928Z,7.98
2017-09-03T23:10:45.849Z,8.02
2017-09-03T23:11:52.095Z,7.98
2017-09-03T23:12:56.915Z,7.88
2017-09-03T23:14:02.331Z,7.84
2017-09-03T23:15:07.835Z,7.84
2017-09-03T23:16:13.391Z,7.75
2017-09-03T23:17:18.895Z,7.69
2017-09-03T23:18:25.029Z,7.73
2017-09-03T23:19:29.995Z,7.75
2017-09-03T23:20:36.034Z,7.78
2017-09-03T23:21:42.076Z,7.82
2017-09-03T23:22:46.743Z,7.80
2017-09-03T23:23:52.160Z,7.76
2017-09-03T23:24:57.655Z,7.77
2017-09-03T23:26:03.241Z,7.73
2017-09-03T23:27:16.452Z,7.71
2017-09-03T23:28:14.275Z,7.71
2017-09-03T23:29:19.871Z,7.77
2017-09-03T23:30:28.098Z,7.84
2017-09-03T23:31:33.711Z,7.90
2017-09-03T23:32:36.403Z,7.88
2017-09-03T23:33:44.618Z,7.82
2017-09-03T23:34:47.513Z,7.76
2017-09-03T23:35:53.112Z,7.67
2017-09-03T23:37:01.052Z,7.55
2017-09-03T23:38:04.163Z,7.48
2017-09-03T23:39:09.824Z,7.48
2017-09-03T23:40:15.194Z,7.48
2017-09-03T23:41:20.713Z,7.59
2017-09-03T23:42:27.552Z,7.63
2017-09-03T23:43:31.748Z,7.59
2017-09-03T23:44:37.346Z,7.53
2017-09-03T23:45:45.170Z,7.46
2017-09-03T23:46:48.372Z,7.46
2017-09-03T23:47:56.730Z,7.51
2017-09-03T23:49:06.983Z,7.61
2017-09-03T23:50:05.098Z,7.63
2017-09-03T23:51:10.520Z,7.63
2017-09-03T23:52:18.591Z,7.65
2017-09-03T23:53:24.094Z,7.55
2017-09-03T23:54:28.249Z,7.50
2017-09-03T23:55:42.493Z,7.50
2017-09-03T23:56:38.220Z,7.48
2017-09-03T23:57:44.597Z,7.40
2017-09-03T23:58:50.142Z,7.44
2017-09-03T23:59:54.877Z,7.46
